sensor_id;sensor_type;location;lat;lon;timestamp;P1;durP1;ratioP1;P2;durP2;ratioP2
32399;SDS011;45045;45.440;9.178;2023-06-05T00:01:47;4.60;;;2.65;;
32399;SDS011;45045;45.440;9.178;2023-06-05T00:04:13;5.15;;;2.53;;
32399;SDS011;45045;45.440;9.178;2023-06-05T00:06:40;3.40;;;1.90;;
32399;SDS011;45045;45.440;9.178;2023-06-05T00:09:05;4.93;;;2.30;;
32399;SDS011;45045;45.440;9.178;2023-06-05T00:11:31;2.88;;;1.88;;
32399;SDS011;45045;45.440;9.178;2023-06-05T00:13:57;3.45;;;2.00;;
32399;SDS011;45045;45.440;9.178;2023-06-05T00:16:23;3.80;;;2.40;;
32399;SDS011;45045;45.440;9.178;2023-06-05T00:18:49;4.18;;;2.05;;
32399;SDS011;45045;45.440;9.178;2023-06-05T00:21:15;5.72;;;2.20;;
32399;SDS011;45045;45.440;9.178;2023-06-05T00:23:41;3.72;;;2.00;;
32399;SDS011;45045;45.440;9.178;2023-06-05T00:26:07;3.63;;;2.20;;
32399;SDS011;45045;45.440;9.178;2023-06-05T00:28:32;3.55;;;2.15;;
32399;SDS011;45045;45.440;9.178;2023-06-05T00:30:58;5.40;;;2.35;;
32399;SDS011;45045;45.440;9.178;2023-06-05T00:33:25;4.00;;;2.20;;
32399;SDS011;45045;45.440;9.178;2023-06-05T00:35:51;4.00;;;2.38;;
32399;SDS011;45045;45.440;9.178;2023-06-05T00:38:17;4.78;;;2.53;;
32399;SDS011;45045;45.440;9.178;2023-06-05T00:40:43;3.70;;;2.30;;
32399;SDS011;45045;45.440;9.178;2023-06-05T00:43:08;3.85;;;2.42;;
32399;SDS011;45045;45.440;9.178;2023-06-05T00:45:34;4.93;;;2.75;;
32399;SDS011;45045;45.440;9.178;2023-06-05T00:48:00;3.20;;;2.25;;
32399;SDS011;45045;45.440;9.178;2023-06-05T00:50:26;4.80;;;2.80;;
32399;SDS011;45045;45.440;9.178;2023-06-05T00:52:52;4.15;;;2.50;;
32399;SDS011;45045;45.440;9.178;2023-06-05T00:55:19;7.18;;;2.70;;
32399;SDS011;45045;45.440;9.178;2023-06-05T00:57:45;4.22;;;2.47;;
32399;SDS011;45045;45.440;9.178;2023-06-05T01:00:10;4.03;;;2.72;;
32399;SDS011;45045;45.440;9.178;2023-06-05T01:02:38;4.90;;;2.60;;
32399;SDS011;45045;45.440;9.178;2023-06-05T01:05:05;4.47;;;2.50;;
32399;SDS011;45045;45.440;9.178;2023-06-05T01:07:34;5.88;;;2.97;;
32399;SDS011;45045;45.440;9.178;2023-06-05T01:10:04;4.88;;;2.83;;
32399;SDS011;45045;45.440;9.178;2023-06-05T01:15:23;8.77;;;4.80;;
32399;SDS011;45045;45.440;9.178;2023-06-05T01:17:53;7.68;;;5.18;;
32399;SDS011;45045;45.440;9.178;2023-06-05T01:20:31;5.13;;;3.78;;
32399;SDS011;45045;45.440;9.178;2023-06-05T01:23:03;5.18;;;3.53;;
32399;SDS011;45045;45.440;9.178;2023-06-05T01:25:33;5.40;;;3.47;;
32399;SDS011;45045;45.440;9.178;2023-06-05T01:30:44;8.18;;;4.90;;
32399;SDS011;45045;45.440;9.178;2023-06-05T01:36:00;8.48;;;5.95;;
32399;SDS011;45045;45.440;9.178;2023-06-05T01:38:31;10.60;;;7.38;;
32399;SDS011;45045;45.440;9.178;2023-06-05T01:40:59;10.90;;;7.95;;
32399;SDS011;45045;45.440;9.178;2023-06-05T01:43:27;9.18;;;7.72;;
32399;SDS011;45045;45.440;9.178;2023-06-05T01:45:53;13.20;;;7.53;;
32399;SDS011;45045;45.440;9.178;2023-06-05T01:48:22;10.00;;;7.43;;
32399;SDS011;45045;45.440;9.178;2023-06-05T01:50:48;8.82;;;7.47;;
32399;SDS011;45045;45.440;9.178;2023-06-05T01:53:18;9.90;;;8.15;;
32399;SDS011;45045;45.440;9.178;2023-06-05T01:55:45;10.38;;;7.65;;
32399;SDS011;45045;45.440;9.178;2023-06-05T01:58:11;10.75;;;8.13;;
32399;SDS011;45045;45.440;9.178;2023-06-05T02:00:37;13.30;;;9.35;;
32399;SDS011;45045;45.440;9.178;2023-06-05T02:03:03;11.02;;;8.77;;
32399;SDS011;45045;45.440;9.178;2023-06-05T02:05:29;12.38;;;9.45;;
32399;SDS011;45045;45.440;9.178;2023-06-05T02:07:55;13.52;;;10.18;;
32399;SDS011;45045;45.440;9.178;2023-06-05T02:10:23;11.95;;;9.07;;
32399;SDS011;45045;45.440;9.178;2023-06-05T02:12:49;11.18;;;9.30;;
32399;SDS011;45045;45.440;9.178;2023-06-05T02:15:15;12.50;;;8.93;;
32399;SDS011;45045;45.440;9.178;2023-06-05T02:17:41;11.68;;;9.15;;
32399;SDS011;45045;45.440;9.178;2023-06-05T02:20:12;11.00;;;8.45;;
32399;SDS011;45045;45.440;9.178;2023-06-05T02:22:38;11.50;;;8.13;;
32399;SDS011;45045;45.440;9.178;2023-06-05T02:25:07;9.48;;;8.40;;
32399;SDS011;45045;45.440;9.178;2023-06-05T02:27:35;10.90;;;8.55;;
32399;SDS011;45045;45.440;9.178;2023-06-05T02:30:02;12.70;;;8.93;;
32399;SDS011;45045;45.440;9.178;2023-06-05T02:32:28;9.45;;;7.55;;
32399;SDS011;45045;45.440;9.178;2023-06-05T02:34:54;8.52;;;6.82;;
32399;SDS011;45045;45.440;9.178;2023-06-05T02:37:22;8.20;;;6.68;;
32399;SDS011;45045;45.440;9.178;2023-06-05T02:39:48;8.70;;;6.53;;
32399;SDS011;45045;45.440;9.178;2023-06-05T02:42:14;8.27;;;6.60;;
32399;SDS011;45045;45.440;9.178;2023-06-05T02:44:39;9.63;;;6.85;;
32399;SDS011;45045;45.440;9.178;2023-06-05T02:47:05;10.52;;;6.95;;
32399;SDS011;45045;45.440;9.178;2023-06-05T02:49:31;11.18;;;7.68;;
32399;SDS011;45045;45.440;9.178;2023-06-05T02:51:57;9.90;;;8.10;;
32399;SDS011;45045;45.440;9.178;2023-06-05T02:54:23;11.18;;;8.32;;
32399;SDS011;45045;45.440;9.178;2023-06-05T02:56:50;10.55;;;8.18;;
32399;SDS011;45045;45.440;9.178;2023-06-05T02:59:15;8.98;;;7.82;;
32399;SDS011;45045;45.440;9.178;2023-06-05T03:01:41;11.43;;;7.68;;
32399;SDS011;45045;45.440;9.178;2023-06-05T03:04:12;11.68;;;8.20;;
32399;SDS011;45045;45.440;9.178;2023-06-05T03:06:38;10.45;;;8.18;;
32399;SDS011;45045;45.440;9.178;2023-06-05T03:09:08;11.80;;;8.27;;
32399;SDS011;45045;45.440;9.178;2023-06-05T03:11:34;10.55;;;7.68;;
32399;SDS011;45045;45.440;9.178;2023-06-05T03:13:59;9.95;;;7.50;;
32399;SDS011;45045;45.440;9.178;2023-06-05T03:16:25;11.00;;;7.85;;
32399;SDS011;45045;45.440;9.178;2023-06-05T03:18:57;9.27;;;7.85;;
32399;SDS011;45045;45.440;9.178;2023-06-05T03:21:23;9.50;;;7.32;;
32399;SDS011;45045;45.440;9.178;2023-06-05T03:23:49;11.82;;;7.82;;
32399;SDS011;45045;45.440;9.178;2023-06-05T03:26:14;11.43;;;7.68;;
32399;SDS011;45045;45.440;9.178;2023-06-05T03:28:40;10.75;;;8.18;;
32399;SDS011;45045;45.440;9.178;2023-06-05T03:31:07;9.35;;;7.25;;
32399;SDS011;45045;45.440;9.178;2023-06-05T03:33:35;9.70;;;7.43;;
32399;SDS011;45045;45.440;9.178;2023-06-05T03:36:00;10.52;;;8.02;;
32399;SDS011;45045;45.440;9.178;2023-06-05T03:38:27;11.50;;;9.38;;
32399;SDS011;45045;45.440;9.178;2023-06-05T03:40:52;11.93;;;9.13;;
32399;SDS011;45045;45.440;9.178;2023-06-05T03:43:18;10.60;;;8.70;;
32399;SDS011;45045;45.440;9.178;2023-06-05T03:45:44;9.77;;;8.25;;
32399;SDS011;45045;45.440;9.178;2023-06-05T03:48:10;11.13;;;8.40;;
32399;SDS011;45045;45.440;9.178;2023-06-05T03:50:36;12.10;;;8.65;;
32399;SDS011;45045;45.440;9.178;2023-06-05T03:53:06;11.70;;;8.85;;
32399;SDS011;45045;45.440;9.178;2023-06-05T03:55:33;10.93;;;9.00;;
32399;SDS011;45045;45.440;9.178;2023-06-05T03:58:11;11.80;;;8.18;;
32399;SDS011;45045;45.440;9.178;2023-06-05T04:00:39;11.40;;;9.02;;
32399;SDS011;45045;45.440;9.178;2023-06-05T04:03:05;12.50;;;9.07;;
32399;SDS011;45045;45.440;9.178;2023-06-05T04:05:33;11.98;;;8.70;;
32399;SDS011;45045;45.440;9.178;2023-06-05T04:07:59;12.20;;;9.18;;
32399;SDS011;45045;45.440;9.178;2023-06-05T04:10:25;10.80;;;8.65;;
32399;SDS011;45045;45.440;9.178;2023-06-05T04:12:51;10.65;;;9.00;;
32399;SDS011;45045;45.440;9.178;2023-06-05T04:15:16;11.85;;;8.82;;
32399;SDS011;45045;45.440;9.178;2023-06-05T04:17:42;12.60;;;8.70;;
32399;SDS011;45045;45.440;9.178;2023-06-05T04:20:08;10.75;;;8.13;;
32399;SDS011;45045;45.440;9.178;2023-06-05T04:22:39;11.65;;;9.05;;
32399;SDS011;45045;45.440;9.178;2023-06-05T04:25:07;11.85;;;8.93;;
32399;SDS011;45045;45.440;9.178;2023-06-05T04:27:35;11.45;;;9.30;;
32399;SDS011;45045;45.440;9.178;2023-06-05T04:30:04;10.60;;;8.40;;
32399;SDS011;45045;45.440;9.178;2023-06-05T04:32:30;11.50;;;8.63;;
32399;SDS011;45045;45.440;9.178;2023-06-05T04:34:59;10.50;;;8.57;;
32399;SDS011;45045;45.440;9.178;2023-06-05T04:37:25;10.65;;;8.50;;
32399;SDS011;45045;45.440;9.178;2023-06-05T04:39:51;9.75;;;8.40;;
32399;SDS011;45045;45.440;9.178;2023-06-05T04:42:17;12.35;;;9.68;;
32399;SDS011;45045;45.440;9.178;2023-06-05T04:44:43;11.13;;;8.30;;
32399;SDS011;45045;45.440;9.178;2023-06-05T04:47:08;16.85;;;9.88;;
32399;SDS011;45045;45.440;9.178;2023-06-05T04:49:34;11.50;;;9.10;;
32399;SDS011;45045;45.440;9.178;2023-06-05T04:52:00;12.38;;;8.70;;
32399;SDS011;45045;45.440;9.178;2023-06-05T04:54:26;10.07;;;7.53;;
32399;SDS011;45045;45.440;9.178;2023-06-05T04:56:51;7.70;;;6.28;;
32399;SDS011;45045;45.440;9.178;2023-06-05T04:59:17;9.63;;;5.60;;
32399;SDS011;45045;45.440;9.178;2023-06-05T05:01:43;9.48;;;6.35;;
32399;SDS011;45045;45.440;9.178;2023-06-05T05:04:09;9.00;;;6.93;;
32399;SDS011;45045;45.440;9.178;2023-06-05T05:06:37;8.50;;;6.53;;
32399;SDS011;45045;45.440;9.178;2023-06-05T05:09:03;13.82;;;6.38;;
32399;SDS011;45045;45.440;9.178;2023-06-05T05:11:29;11.63;;;6.68;;
32399;SDS011;45045;45.440;9.178;2023-06-05T05:13:55;9.27;;;7.15;;
32399;SDS011;45045;45.440;9.178;2023-06-05T05:16:21;9.07;;;6.53;;
32399;SDS011;45045;45.440;9.178;2023-06-05T05:18:47;13.00;;;7.22;;
32399;SDS011;45045;45.440;9.178;2023-06-05T05:21:13;8.95;;;6.30;;
32399;SDS011;45045;45.440;9.178;2023-06-05T05:23:38;8.27;;;6.13;;
32399;SDS011;45045;45.440;9.178;2023-06-05T05:26:04;8.43;;;6.40;;
32399;SDS011;45045;45.440;9.178;2023-06-05T05:28:30;8.00;;;6.43;;
32399;SDS011;45045;45.440;9.178;2023-06-05T05:30:55;10.95;;;8.05;;
32399;SDS011;45045;45.440;9.178;2023-06-05T05:33:22;10.27;;;7.50;;
32399;SDS011;45045;45.440;9.178;2023-06-05T05:35:48;10.63;;;7.93;;
32399;SDS011;45045;45.440;9.178;2023-06-05T05:38:13;10.52;;;8.18;;
32399;SDS011;45045;45.440;9.178;2023-06-05T05:40:39;12.27;;;9.27;;
32399;SDS011;45045;45.440;9.178;2023-06-05T05:43:05;11.93;;;9.65;;
32399;SDS011;45045;45.440;9.178;2023-06-05T05:45:31;11.00;;;9.13;;
32399;SDS011;45045;45.440;9.178;2023-06-05T05:47:56;14.23;;;9.20;;
32399;SDS011;45045;45.440;9.178;2023-06-05T05:50:22;12.15;;;9.90;;
32399;SDS011;45045;45.440;9.178;2023-06-05T05:52:48;11.30;;;9.43;;
32399;SDS011;45045;45.440;9.178;2023-06-05T05:55:15;12.85;;;9.27;;
32399;SDS011;45045;45.440;9.178;2023-06-05T05:57:41;7.60;;;6.15;;
32399;SDS011;45045;45.440;9.178;2023-06-05T06:00:07;6.93;;;4.63;;
32399;SDS011;45045;45.440;9.178;2023-06-05T06:02:37;6.38;;;4.18;;
32399;SDS011;45045;45.440;9.178;2023-06-05T06:05:04;7.13;;;5.53;;
32399;SDS011;45045;45.440;9.178;2023-06-05T06:07:30;5.70;;;3.85;;
32399;SDS011;45045;45.440;9.178;2023-06-05T06:09:56;9.95;;;4.32;;
32399;SDS011;45045;45.440;9.178;2023-06-05T06:12:23;6.45;;;4.68;;
32399;SDS011;45045;45.440;9.178;2023-06-05T06:14:49;8.55;;;5.22;;
32399;SDS011;45045;45.440;9.178;2023-06-05T06:17:15;9.75;;;6.82;;
32399;SDS011;45045;45.440;9.178;2023-06-05T06:19:41;11.40;;;7.63;;
32399;SDS011;45045;45.440;9.178;2023-06-05T06:22:07;11.80;;;8.27;;
32399;SDS011;45045;45.440;9.178;2023-06-05T06:24:37;10.93;;;7.45;;
32399;SDS011;45045;45.440;9.178;2023-06-05T06:27:04;9.80;;;7.00;;
32399;SDS011;45045;45.440;9.178;2023-06-05T06:29:30;9.27;;;7.47;;
32399;SDS011;45045;45.440;9.178;2023-06-05T06:31:56;11.55;;;8.75;;
32399;SDS011;45045;45.440;9.178;2023-06-05T06:34:22;14.32;;;8.98;;
32399;SDS011;45045;45.440;9.178;2023-06-05T06:36:49;11.13;;;8.85;;
32399;SDS011;45045;45.440;9.178;2023-06-05T06:39:16;13.75;;;9.23;;
32399;SDS011;45045;45.440;9.178;2023-06-05T06:41:43;12.52;;;9.38;;
32399;SDS011;45045;45.440;9.178;2023-06-05T06:44:09;13.73;;;8.68;;
32399;SDS011;45045;45.440;9.178;2023-06-05T06:46:35;13.27;;;7.63;;
32399;SDS011;45045;45.440;9.178;2023-06-05T06:49:01;10.60;;;7.15;;
32399;SDS011;45045;45.440;9.178;2023-06-05T06:51:27;13.38;;;8.43;;
32399;SDS011;45045;45.440;9.178;2023-06-05T06:53:53;11.07;;;7.22;;
32399;SDS011;45045;45.440;9.178;2023-06-05T06:56:19;10.98;;;8.70;;
32399;SDS011;45045;45.440;9.178;2023-06-05T06:58:45;9.95;;;8.32;;
32399;SDS011;45045;45.440;9.178;2023-06-05T07:01:11;16.00;;;9.25;;
32399;SDS011;45045;45.440;9.178;2023-06-05T07:03:38;12.38;;;8.57;;
32399;SDS011;45045;45.440;9.178;2023-06-05T07:06:05;14.20;;;9.63;;
32399;SDS011;45045;45.440;9.178;2023-06-05T07:08:30;14.10;;;9.85;;
32399;SDS011;45045;45.440;9.178;2023-06-05T07:10:56;13.52;;;8.63;;
32399;SDS011;45045;45.440;9.178;2023-06-05T07:13:22;10.98;;;7.32;;
32399;SDS011;45045;45.440;9.178;2023-06-05T07:15:48;8.75;;;6.22;;
32399;SDS011;45045;45.440;9.178;2023-06-05T07:18:15;9.88;;;6.57;;
32399;SDS011;45045;45.440;9.178;2023-06-05T07:20:42;8.90;;;5.70;;
32399;SDS011;45045;45.440;9.178;2023-06-05T07:23:07;9.55;;;5.60;;
32399;SDS011;45045;45.440;9.178;2023-06-05T07:25:33;6.90;;;4.20;;
32399;SDS011;45045;45.440;9.178;2023-06-05T07:27:59;9.43;;;4.63;;
32399;SDS011;45045;45.440;9.178;2023-06-05T07:30:28;24.60;;;17.88;;
32399;SDS011;45045;45.440;9.178;2023-06-05T07:32:54;6.32;;;4.80;;
32399;SDS011;45045;45.440;9.178;2023-06-05T07:35:20;10.25;;;6.20;;
32399;SDS011;45045;45.440;9.178;2023-06-05T07:37:46;9.98;;;5.82;;
32399;SDS011;45045;45.440;9.178;2023-06-05T07:40:12;8.20;;;5.93;;
32399;SDS011;45045;45.440;9.178;2023-06-05T07:42:38;8.93;;;6.38;;
32399;SDS011;45045;45.440;9.178;2023-06-05T07:45:04;10.07;;;5.93;;
32399;SDS011;45045;45.440;9.178;2023-06-05T07:47:30;8.60;;;5.82;;
32399;SDS011;45045;45.440;9.178;2023-06-05T07:49:59;11.70;;;6.43;;
32399;SDS011;45045;45.440;9.178;2023-06-05T07:52:35;9.98;;;6.35;;
32399;SDS011;45045;45.440;9.178;2023-06-05T07:55:01;10.52;;;7.22;;
32399;SDS011;45045;45.440;9.178;2023-06-05T07:57:27;10.43;;;7.15;;
32399;SDS011;45045;45.440;9.178;2023-06-05T07:59:53;12.98;;;7.80;;
32399;SDS011;45045;45.440;9.178;2023-06-05T08:02:19;15.70;;;8.25;;
32399;SDS011;45045;45.440;9.178;2023-06-05T08:04:46;15.07;;;9.70;;
32399;SDS011;45045;45.440;9.178;2023-06-05T08:07:12;10.18;;;7.95;;
32399;SDS011;45045;45.440;9.178;2023-06-05T08:09:37;12.30;;;7.90;;
32399;SDS011;45045;45.440;9.178;2023-06-05T08:12:03;10.63;;;7.60;;
32399;SDS011;45045;45.440;9.178;2023-06-05T08:14:29;11.30;;;7.82;;
32399;SDS011;45045;45.440;9.178;2023-06-05T08:16:55;10.65;;;7.65;;
32399;SDS011;45045;45.440;9.178;2023-06-05T08:19:21;9.43;;;7.53;;
32399;SDS011;45045;45.440;9.178;2023-06-05T08:21:49;10.25;;;7.88;;
32399;SDS011;45045;45.440;9.178;2023-06-05T08:24:16;10.80;;;7.53;;
32399;SDS011;45045;45.440;9.178;2023-06-05T08:26:42;10.60;;;8.23;;
32399;SDS011;45045;45.440;9.178;2023-06-05T08:29:08;10.93;;;8.13;;
32399;SDS011;45045;45.440;9.178;2023-06-05T08:31:33;8.52;;;7.57;;
32399;SDS011;45045;45.440;9.178;2023-06-05T08:34:01;10.95;;;7.75;;
32399;SDS011;45045;45.440;9.178;2023-06-05T08:36:27;10.30;;;7.07;;
32399;SDS011;45045;45.440;9.178;2023-06-05T08:38:53;9.90;;;7.57;;
32399;SDS011;45045;45.440;9.178;2023-06-05T08:41:19;10.02;;;7.80;;
32399;SDS011;45045;45.440;9.178;2023-06-05T08:43:45;9.32;;;7.32;;
32399;SDS011;45045;45.440;9.178;2023-06-05T08:46:12;13.90;;;7.82;;
32399;SDS011;45045;45.440;9.178;2023-06-05T08:48:42;9.70;;;7.70;;
32399;SDS011;45045;45.440;9.178;2023-06-05T08:51:09;12.57;;;7.90;;
32399;SDS011;45045;45.440;9.178;2023-06-05T08:53:40;10.75;;;8.65;;
32399;SDS011;45045;45.440;9.178;2023-06-05T08:56:09;11.60;;;9.55;;
32399;SDS011;45045;45.440;9.178;2023-06-05T08:58:36;13.98;;;9.93;;
32399;SDS011;45045;45.440;9.178;2023-06-05T09:01:02;11.52;;;9.55;;
32399;SDS011;45045;45.440;9.178;2023-06-05T09:03:27;12.63;;;10.32;;
32399;SDS011;45045;45.440;9.178;2023-06-05T09:05:53;12.05;;;9.57;;
32399;SDS011;45045;45.440;9.178;2023-06-05T09:08:22;13.52;;;9.95;;
32399;SDS011;45045;45.440;9.178;2023-06-05T09:13:53;12.18;;;10.68;;
32399;SDS011;45045;45.440;9.178;2023-06-05T09:16:31;12.63;;;10.00;;
32399;SDS011;45045;45.440;9.178;2023-06-05T09:19:10;11.57;;;9.70;;
32399;SDS011;45045;45.440;9.178;2023-06-05T09:21:36;13.82;;;9.60;;
32399;SDS011;45045;45.440;9.178;2023-06-05T09:26:54;13.32;;;9.68;;
32399;SDS011;45045;45.440;9.178;2023-06-05T09:29:29;13.23;;;9.77;;
32399;SDS011;45045;45.440;9.178;2023-06-05T09:31:56;11.73;;;10.23;;
32399;SDS011;45045;45.440;9.178;2023-06-05T09:34:54;12.57;;;9.73;;
32399;SDS011;45045;45.440;9.178;2023-06-05T09:37:32;11.38;;;9.73;;
32399;SDS011;45045;45.440;9.178;2023-06-05T09:40:01;11.60;;;10.40;;
32399;SDS011;45045;45.440;9.178;2023-06-05T09:42:32;11.52;;;9.30;;
32399;SDS011;45045;45.440;9.178;2023-06-05T09:44:59;11.57;;;9.13;;
32399;SDS011;45045;45.440;9.178;2023-06-05T09:47:26;10.98;;;9.70;;
32399;SDS011;45045;45.440;9.178;2023-06-05T09:49:51;13.25;;;9.98;;
32399;SDS011;45045;45.440;9.178;2023-06-05T09:52:17;14.75;;;9.35;;
32399;SDS011;45045;45.440;9.178;2023-06-05T09:54:44;12.60;;;9.57;;
32399;SDS011;45045;45.440;9.178;2023-06-05T09:57:12;11.50;;;9.40;;
32399;SDS011;45045;45.440;9.178;2023-06-05T10:00:02;12.30;;;9.93;;
32399;SDS011;45045;45.440;9.178;2023-06-05T10:02:32;11.30;;;9.98;;
32399;SDS011;45045;45.440;9.178;2023-06-05T10:07:29;13.10;;;10.73;;
32399;SDS011;45045;45.440;9.178;2023-06-05T10:09:57;13.95;;;9.82;;
32399;SDS011;45045;45.440;9.178;2023-06-05T10:12:23;10.60;;;9.50;;
32399;SDS011;45045;45.440;9.178;2023-06-05T10:14:52;11.23;;;9.25;;
32399;SDS011;45045;45.440;9.178;2023-06-05T10:17:21;10.82;;;9.27;;
32399;SDS011;45045;45.440;9.178;2023-06-05T10:19:47;11.73;;;9.93;;
32399;SDS011;45045;45.440;9.178;2023-06-05T10:22:13;12.07;;;9.80;;
32399;SDS011;45045;45.440;9.178;2023-06-05T10:24:43;10.88;;;9.75;;
32399;SDS011;45045;45.440;9.178;2023-06-05T10:38:41;9.27;;;8.18;;
32399;SDS011;45045;45.440;9.178;2023-06-05T10:41:08;11.80;;;8.90;;
32399;SDS011;45045;45.440;9.178;2023-06-05T10:43:47;11.65;;;9.13;;
32399;SDS011;45045;45.440;9.178;2023-06-05T10:49:13;10.23;;;7.75;;
32399;SDS011;45045;45.440;9.178;2023-06-05T10:54:10;9.48;;;7.90;;
32399;SDS011;45045;45.440;9.178;2023-06-05T10:59:22;10.35;;;8.60;;
32399;SDS011;45045;45.440;9.178;2023-06-05T11:09:39;9.90;;;8.05;;
32399;SDS011;45045;45.440;9.178;2023-06-05T11:12:52;10.25;;;8.82;;
32399;SDS011;45045;45.440;9.178;2023-06-05T11:15:16;12.45;;;8.93;;
32399;SDS011;45045;45.440;9.178;2023-06-05T11:21:00;11.38;;;8.20;;
32399;SDS011;45045;45.440;9.178;2023-06-05T11:23:26;14.43;;;9.70;;
32399;SDS011;45045;45.440;9.178;2023-06-05T11:25:53;10.98;;;8.32;;
32399;SDS011;45045;45.440;9.178;2023-06-05T11:28:40;9.68;;;7.50;;
32399;SDS011;45045;45.440;9.178;2023-06-05T11:31:07;9.93;;;8.10;;
32399;SDS011;45045;45.440;9.178;2023-06-05T11:33:33;12.10;;;9.90;;
32399;SDS011;45045;45.440;9.178;2023-06-05T11:36:04;11.50;;;10.30;;
32399;SDS011;45045;45.440;9.178;2023-06-05T11:38:31;12.95;;;9.60;;
32399;SDS011;45045;45.440;9.178;2023-06-05T11:40:57;11.02;;;9.73;;
32399;SDS011;45045;45.440;9.178;2023-06-05T11:43:23;11.18;;;8.50;;
32399;SDS011;45045;45.440;9.178;2023-06-05T11:45:53;7.60;;;6.05;;
32399;SDS011;45045;45.440;9.178;2023-06-05T11:48:20;6.63;;;4.75;;
32399;SDS011;45045;45.440;9.178;2023-06-05T11:53:19;6.82;;;4.60;;
32399;SDS011;45045;45.440;9.178;2023-06-05T11:55:46;6.47;;;4.00;;
32399;SDS011;45045;45.440;9.178;2023-06-05T11:58:20;6.82;;;4.25;;
32399;SDS011;45045;45.440;9.178;2023-06-05T12:00:50;6.40;;;3.80;;
32399;SDS011;45045;45.440;9.178;2023-06-05T12:03:17;5.28;;;3.50;;
32399;SDS011;45045;45.440;9.178;2023-06-05T12:05:49;6.18;;;3.08;;
32399;SDS011;45045;45.440;9.178;2023-06-05T12:08:25;3.83;;;2.22;;
32399;SDS011;45045;45.440;9.178;2023-06-05T12:10:52;4.05;;;2.45;;
32399;SDS011;45045;45.440;9.178;2023-06-05T12:13:18;4.22;;;2.55;;
32399;SDS011;45045;45.440;9.178;2023-06-05T12:15:59;4.00;;;2.10;;
32399;SDS011;45045;45.440;9.178;2023-06-05T12:18:33;3.47;;;2.25;;
32399;SDS011;45045;45.440;9.178;2023-06-05T12:20:59;4.18;;;2.67;;
32399;SDS011;45045;45.440;9.178;2023-06-05T12:23:25;5.13;;;2.10;;
32399;SDS011;45045;45.440;9.178;2023-06-05T12:26:00;6.15;;;2.78;;
32399;SDS011;45045;45.440;9.178;2023-06-05T12:28:27;5.05;;;2.17;;
32399;SDS011;45045;45.440;9.178;2023-06-05T12:30:53;3.47;;;2.10;;
32399;SDS011;45045;45.440;9.178;2023-06-05T12:33:19;3.40;;;2.00;;
32399;SDS011;45045;45.440;9.178;2023-06-05T12:35:45;3.85;;;1.70;;
32399;SDS011;45045;45.440;9.178;2023-06-05T12:38:11;2.75;;;1.65;;
32399;SDS011;45045;45.440;9.178;2023-06-05T12:40:38;3.42;;;1.73;;
32399;SDS011;45045;45.440;9.178;2023-06-05T12:43:14;3.78;;;1.77;;
32399;SDS011;45045;45.440;9.178;2023-06-05T12:45:41;4.78;;;1.77;;
32399;SDS011;45045;45.440;9.178;2023-06-05T12:48:08;3.40;;;2.10;;
32399;SDS011;45045;45.440;9.178;2023-06-05T12:50:35;4.13;;;2.05;;
32399;SDS011;45045;45.440;9.178;2023-06-05T12:53:01;4.20;;;2.00;;
32399;SDS011;45045;45.440;9.178;2023-06-05T12:55:27;4.47;;;2.00;;
32399;SDS011;45045;45.440;9.178;2023-06-05T12:57:52;4.22;;;1.90;;
32399;SDS011;45045;45.440;9.178;2023-06-05T13:00:19;3.00;;;1.63;;
32399;SDS011;45045;45.440;9.178;2023-06-05T13:02:46;5.22;;;1.60;;
32399;SDS011;45045;45.440;9.178;2023-06-05T13:05:13;3.55;;;1.38;;
32399;SDS011;45045;45.440;9.178;2023-06-05T13:07:39;3.25;;;1.25;;
32399;SDS011;45045;45.440;9.178;2023-06-05T13:10:05;4.40;;;1.90;;
32399;SDS011;45045;45.440;9.178;2023-06-05T13:12:31;3.75;;;1.63;;
32399;SDS011;45045;45.440;9.178;2023-06-05T13:14:57;3.67;;;1.70;;
32399;SDS011;45045;45.440;9.178;2023-06-05T13:17:24;2.40;;;1.40;;
32399;SDS011;45045;45.440;9.178;2023-06-05T13:19:50;3.75;;;1.25;;
32399;SDS011;45045;45.440;9.178;2023-06-05T13:22:16;4.40;;;1.60;;
32399;SDS011;45045;45.440;9.178;2023-06-05T13:24:41;2.28;;;1.02;;
32399;SDS011;45045;45.440;9.178;2023-06-05T13:27:07;3.33;;;1.48;;
32399;SDS011;45045;45.440;9.178;2023-06-05T13:29:33;3.03;;;1.23;;
32399;SDS011;45045;45.440;9.178;2023-06-05T13:31:58;2.75;;;1.17;;
32399;SDS011;45045;45.440;9.178;2023-06-05T13:34:24;3.03;;;1.40;;
32399;SDS011;45045;45.440;9.178;2023-06-05T13:36:50;3.30;;;1.27;;
32399;SDS011;45045;45.440;9.178;2023-06-05T13:39:15;2.80;;;1.40;;
32399;SDS011;45045;45.440;9.178;2023-06-05T13:41:41;5.18;;;1.75;;
32399;SDS011;45045;45.440;9.178;2023-06-05T13:44:06;3.25;;;1.48;;
32399;SDS011;45045;45.440;9.178;2023-06-05T13:46:32;5.03;;;1.85;;
32399;SDS011;45045;45.440;9.178;2023-06-05T13:48:58;3.45;;;1.40;;
32399;SDS011;45045;45.440;9.178;2023-06-05T13:51:25;5.32;;;2.40;;
32399;SDS011;45045;45.440;9.178;2023-06-05T13:53:51;4.07;;;2.45;;
32399;SDS011;45045;45.440;9.178;2023-06-05T13:56:17;3.40;;;2.05;;
32399;SDS011;45045;45.440;9.178;2023-06-05T13:58:43;3.88;;;1.65;;
32399;SDS011;45045;45.440;9.178;2023-06-05T14:01:09;3.50;;;1.75;;
32399;SDS011;45045;45.440;9.178;2023-06-05T14:03:37;3.75;;;1.98;;
32399;SDS011;45045;45.440;9.178;2023-06-05T14:06:03;3.20;;;1.95;;
32399;SDS011;45045;45.440;9.178;2023-06-05T14:08:29;3.55;;;1.90;;
32399;SDS011;45045;45.440;9.178;2023-06-05T14:10:59;5.03;;;1.95;;
32399;SDS011;45045;45.440;9.178;2023-06-05T14:13:24;3.60;;;2.03;;
32399;SDS011;45045;45.440;9.178;2023-06-05T14:15:50;3.33;;;2.22;;
32399;SDS011;45045;45.440;9.178;2023-06-05T14:18:16;3.33;;;2.45;;
32399;SDS011;45045;45.440;9.178;2023-06-05T14:20:42;3.42;;;1.92;;
32399;SDS011;45045;45.440;9.178;2023-06-05T14:23:07;4.55;;;2.00;;
32399;SDS011;45045;45.440;9.178;2023-06-05T14:25:33;3.40;;;2.08;;
32399;SDS011;45045;45.440;9.178;2023-06-05T14:27:59;5.88;;;1.80;;
32399;SDS011;45045;45.440;9.178;2023-06-05T14:30:25;3.95;;;1.48;;
32399;SDS011;45045;45.440;9.178;2023-06-05T14:32:53;4.28;;;1.60;;
32399;SDS011;45045;45.440;9.178;2023-06-05T14:35:20;2.90;;;1.70;;
32399;SDS011;45045;45.440;9.178;2023-06-05T14:37:47;3.63;;;1.80;;
32399;SDS011;45045;45.440;9.178;2023-06-05T14:40:13;4.80;;;1.92;;
32399;SDS011;45045;45.440;9.178;2023-06-05T14:42:39;2.80;;;1.67;;
32399;SDS011;45045;45.440;9.178;2023-06-05T14:45:06;4.55;;;2.05;;
32399;SDS011;45045;45.440;9.178;2023-06-05T14:47:32;3.72;;;1.67;;
32399;SDS011;45045;45.440;9.178;2023-06-05T14:49:58;2.10;;;1.13;;
32399;SDS011;45045;45.440;9.178;2023-06-05T14:52:24;2.63;;;1.20;;
32399;SDS011;45045;45.440;9.178;2023-06-05T14:54:50;2.47;;;1.40;;
32399;SDS011;45045;45.440;9.178;2023-06-05T14:57:15;2.75;;;1.38;;
32399;SDS011;45045;45.440;9.178;2023-06-05T14:59:41;2.67;;;1.35;;
32399;SDS011;45045;45.440;9.178;2023-06-05T15:02:07;4.68;;;1.15;;
32399;SDS011;45045;45.440;9.178;2023-06-05T15:04:33;3.17;;;1.95;;
32399;SDS011;45045;45.440;9.178;2023-06-05T15:06:59;3.28;;;1.90;;
32399;SDS011;45045;45.440;9.178;2023-06-05T15:09:24;3.88;;;2.22;;
32399;SDS011;45045;45.440;9.178;2023-06-05T15:11:50;4.90;;;3.00;;
32399;SDS011;45045;45.440;9.178;2023-06-05T15:14:17;4.22;;;2.42;;
32399;SDS011;45045;45.440;9.178;2023-06-05T15:16:43;3.92;;;2.40;;
32399;SDS011;45045;45.440;9.178;2023-06-05T15:19:09;4.47;;;2.45;;
32399;SDS011;45045;45.440;9.178;2023-06-05T15:21:34;4.63;;;2.60;;
32399;SDS011;45045;45.440;9.178;2023-06-05T15:24:01;4.15;;;2.00;;
32399;SDS011;45045;45.440;9.178;2023-06-05T15:26:27;4.25;;;2.88;;
32399;SDS011;45045;45.440;9.178;2023-06-05T15:28:52;4.78;;;2.55;;
32399;SDS011;45045;45.440;9.178;2023-06-05T15:31:18;3.90;;;2.20;;